Winfield, Texas
Current Conditions -  °F | °C
As of 7:15 PM on Friday 19 Dec 2014 (Local Time) from KOSA Reporting Station
Overcast Overcast  
Wind Chill: 44°   Ceiling: 700
Heat Index: 46°   Visibility: 5mi
Dew Point: 45°   Wind: 5mph
Humidity: 96%   Direction: 10°N
Pressure: 30.21"   Gusts: NA
Location:  33.17°N, 95.11°W
Report Text: KOSA 200115Z AUTO 01004KT 5SM OVC007 08/07 A3021 RMK AO1 T00770071
Loading
Personal Weather Stations






























Interactive Weather Map New forecast layout! Learn more

10-Day Weather Forecast

Advertisements
Track Severe Weather on mobile